createdAt,value
2023-05-21T00:00:31.399Z,46.13
2023-05-21T00:02:59.478Z,43.20
2023-05-21T00:05:26.832Z,48.97
2023-05-21T00:07:55.197Z,51.22
2023-05-21T00:10:22.745Z,46.90
2023-05-21T00:12:49.871Z,59.03
2023-05-21T00:15:17.072Z,56.42
2023-05-21T00:17:44.736Z,63.60
2023-05-21T00:20:13.008Z,61.85
2023-05-21T00:22:42.513Z,59.70
2023-05-21T00:25:11.566Z,52.15
2023-05-21T00:27:38.720Z,58.72
2023-05-21T00:30:07.176Z,53.35
2023-05-21T00:32:34.313Z,56.05
2023-05-21T00:35:01.564Z,71.75
2023-05-21T00:37:33.169Z,55.05
2023-05-21T00:40:06.752Z,55.13
2023-05-21T00:42:34.187Z,61.65
2023-05-21T00:45:03.865Z,54.30
2023-05-21T00:47:31.951Z,42.03
2023-05-21T00:49:59.641Z,33.85
2023-05-21T00:52:27.423Z,43.65
2023-05-21T00:54:55.364Z,45.13
2023-05-21T00:57:27.506Z,41.65
2023-05-21T00:59:54.961Z,34.72
2023-05-21T01:02:24.433Z,35.35
2023-05-21T01:04:55.369Z,43.42
2023-05-21T01:07:22.652Z,32.17
2023-05-21T01:09:49.868Z,34.00
2023-05-21T01:12:18.080Z,44.95
2023-05-21T01:14:45.620Z,59.00
2023-05-21T01:17:14.016Z,52.17
2023-05-21T01:19:42.888Z,48.63
2023-05-21T01:22:12.574Z,73.75
2023-05-21T01:24:39.764Z,63.33
2023-05-21T01:27:07.965Z,66.05
2023-05-21T01:29:35.124Z,63.42
2023-05-21T01:32:12.610Z,53.00
2023-05-21T01:34:53.674Z,58.30
2023-05-21T01:37:31.632Z,56.70
2023-05-21T01:40:21.921Z,70.53
2023-05-21T01:42:49.578Z,74.68
2023-05-21T01:45:17.929Z,65.88
2023-05-21T01:47:50.555Z,66.57
2023-05-21T01:50:19.153Z,63.22
2023-05-21T01:52:54.074Z,58.25
2023-05-21T01:55:25.056Z,49.35
2023-05-21T01:57:53.802Z,36.40
2023-05-21T02:00:22.333Z,41.03
2023-05-21T02:02:50.222Z,49.47
2023-05-21T02:05:17.922Z,54.88
2023-05-21T02:07:46.515Z,65.75
2023-05-21T02:10:14.705Z,50.50
2023-05-21T02:12:43.392Z,57.17
2023-05-21T02:15:11.124Z,54.17
2023-05-21T02:17:38.988Z,36.40
2023-05-21T02:20:14.015Z,40.55
2023-05-21T02:22:44.638Z,30.63
2023-05-21T02:25:13.686Z,31.10
2023-05-21T02:27:42.645Z,23.45
2023-05-21T02:30:11.858Z,30.35
2023-05-21T02:32:42.838Z,26.20
2023-05-21T02:35:12.076Z,25.80
2023-05-21T02:37:40.751Z,30.33
2023-05-21T02:40:10.325Z,23.30
2023-05-21T02:42:40.330Z,20.98
2023-05-21T02:45:11.880Z,20.25
2023-05-21T02:47:41.721Z,12.02
2023-05-21T02:50:09.555Z,22.52
2023-05-21T02:52:43.906Z,19.17
2023-05-21T02:55:11.204Z,15.93
2023-05-21T02:57:38.357Z,21.73
2023-05-21T03:00:06.339Z,15.88
2023-05-21T03:02:34.560Z,16.00
2023-05-21T03:05:03.057Z,21.73
2023-05-21T03:07:30.103Z,16.88
2023-05-21T03:09:57.164Z,25.63
2023-05-21T03:12:24.310Z,14.70
2023-05-21T03:14:51.547Z,19.63
2023-05-21T03:17:20.755Z,24.08
2023-05-21T03:19:49.362Z,31.88
2023-05-21T03:22:17.008Z,29.95
2023-05-21T03:24:45.451Z,30.52
2023-05-21T03:27:13.717Z,37.05
2023-05-21T03:29:40.854Z,54.55
2023-05-21T03:32:08.991Z,49.50
2023-05-21T03:34:36.287Z,59.35
2023-05-21T03:37:03.927Z,57.15
2023-05-21T03:39:32.401Z,40.28
2023-05-21T03:42:00.414Z,51.35
2023-05-21T03:44:38.738Z,46.85
2023-05-21T03:47:42.177Z,46.00
2023-05-21T03:50:11.084Z,56.75
2023-05-21T03:52:38.814Z,55.53
2023-05-21T03:55:06.913Z,52.75
2023-05-21T03:57:34.347Z,59.72
2023-05-21T04:00:01.371Z,40.92
2023-05-21T04:02:30.045Z,43.90
2023-05-21T04:04:57.250Z,52.65
2023-05-21T04:07:25.265Z,35.08
2023-05-21T04:09:52.346Z,36.67
2023-05-21T04:12:20.564Z,31.05
2023-05-21T04:14:48.565Z,29.92
2023-05-21T04:17:15.932Z,28.33
2023-05-21T04:19:44.426Z,27.35
2023-05-21T04:22:12.390Z,28.33
2023-05-21T04:24:39.864Z,26.40
2023-05-21T04:27:29.086Z,23.80
2023-05-21T04:29:58.220Z,31.80
2023-05-21T04:32:25.346Z,22.45
2023-05-21T04:34:52.543Z,25.55
2023-05-21T04:37:19.916Z,23.27
2023-05-21T04:39:48.214Z,21.67
2023-05-21T04:42:15.384Z,25.23
2023-05-21T04:44:44.621Z,43.80
2023-05-21T04:47:15.034Z,34.25
2023-05-21T04:49:42.633Z,27.55
2023-05-21T04:52:09.963Z,23.73
2023-05-21T04:54:39.103Z,28.08
2023-05-21T04:57:07.009Z,37.78
2023-05-21T04:59:35.818Z,29.98
2023-05-21T05:02:03.742Z,36.50
2023-05-21T05:04:31.969Z,47.50
2023-05-21T05:06:59.115Z,42.80
2023-05-21T05:09:26.302Z,30.08
2023-05-21T05:11:53.645Z,38.65
2023-05-21T05:14:20.693Z,48.42
2023-05-21T05:16:50.664Z,51.45
2023-05-21T05:19:18.171Z,51.47
2023-05-21T05:21:45.564Z,33.28
2023-05-21T05:24:12.861Z,37.00
2023-05-21T05:26:39.927Z,37.53
2023-05-21T05:29:07.063Z,41.88
2023-05-21T05:31:34.349Z,31.80
2023-05-21T05:34:02.341Z,33.72
2023-05-21T05:36:29.862Z,29.30
2023-05-21T05:38:57.018Z,27.85
2023-05-21T05:41:24.128Z,29.58
2023-05-21T05:43:51.430Z,35.45
2023-05-21T05:46:21.212Z,32.38
2023-05-21T05:48:48.508Z,38.13
2023-05-21T05:51:17.315Z,39.90
2023-05-21T05:53:46.834Z,36.70
2023-05-21T05:56:14.464Z,45.30
2023-05-21T05:58:41.799Z,36.33
2023-05-21T06:01:14.348Z,42.40
2023-05-21T06:03:41.690Z,45.88
2023-05-21T06:08:42.263Z,33.35
2023-05-21T06:11:09.966Z,36.08
2023-05-21T06:13:37.301Z,38.63
2023-05-21T06:16:06.606Z,44.90
2023-05-21T06:18:33.704Z,33.58
2023-05-21T06:21:00.804Z,30.77
2023-05-21T06:23:28.826Z,27.17
2023-05-21T06:25:56.015Z,24.75
2023-05-21T06:28:23.734Z,30.00
2023-05-21T06:30:51.725Z,34.08
2023-05-21T06:33:19.922Z,37.70
2023-05-21T06:35:47.369Z,28.85
2023-05-21T06:38:14.667Z,37.60
2023-05-21T06:40:44.766Z,35.58
2023-05-21T06:43:17.419Z,30.42
2023-05-21T06:46:04.604Z,22.48
2023-05-21T06:48:38.460Z,33.33
2023-05-21T06:51:06.168Z,36.13
2023-05-21T06:53:33.724Z,32.65
2023-05-21T06:56:01.100Z,30.23
2023-05-21T06:58:36.159Z,24.27
2023-05-21T07:01:04.653Z,37.22
2023-05-21T07:03:32.247Z,33.78
2023-05-21T07:05:59.655Z,41.92
2023-05-21T07:08:27.433Z,39.95
2023-05-21T07:10:56.559Z,31.02
2023-05-21T07:13:23.843Z,32.75
2023-05-21T07:15:51.058Z,29.48
2023-05-21T07:18:19.395Z,34.88
2023-05-21T07:20:46.726Z,34.75
2023-05-21T07:23:16.014Z,37.60
2023-05-21T07:25:43.224Z,29.27
2023-05-21T07:28:10.331Z,18.67
2023-05-21T07:30:37.541Z,25.35
2023-05-21T07:33:09.811Z,27.23
2023-05-21T07:35:37.305Z,30.95
2023-05-21T07:38:04.678Z,33.67
2023-05-21T07:40:32.061Z,29.65
2023-05-21T07:43:01.253Z,25.45
2023-05-21T07:45:30.475Z,27.10
2023-05-21T07:47:58.088Z,31.58
2023-05-21T07:50:26.603Z,25.50
2023-05-21T07:52:54.869Z,37.60
2023-05-21T07:55:22.222Z,34.95
2023-05-21T07:57:52.599Z,30.70
2023-05-21T08:00:25.911Z,27.27
2023-05-21T08:02:57.481Z,34.38
2023-05-21T08:05:26.214Z,26.15
2023-05-21T08:07:53.545Z,32.22
2023-05-21T08:10:22.772Z,33.30
2023-05-21T08:12:51.850Z,27.42
2023-05-21T08:15:20.818Z,32.55
2023-05-21T08:17:48.092Z,24.35
2023-05-21T08:20:16.125Z,33.30
2023-05-21T08:22:45.426Z,21.48
2023-05-21T08:25:12.635Z,30.13
2023-05-21T08:27:39.844Z,27.33
2023-05-21T08:30:07.837Z,41.63
2023-05-21T08:32:35.437Z,42.42
2023-05-21T08:35:03.533Z,30.27
2023-05-21T08:37:49.265Z,36.30
2023-05-21T08:40:24.597Z,53.90
2023-05-21T08:42:52.458Z,49.45
2023-05-21T08:45:28.092Z,47.30
2023-05-21T08:47:57.635Z,49.63
2023-05-21T08:50:28.438Z,49.40
2023-05-21T08:53:04.043Z,43.13
2023-05-21T08:55:39.080Z,52.88
2023-05-21T08:58:06.604Z,54.55
2023-05-21T09:00:34.055Z,61.60
2023-05-21T09:03:02.965Z,56.25
2023-05-21T09:05:33.625Z,63.75
2023-05-21T09:08:07.482Z,50.28
2023-05-21T09:10:53.298Z,55.10
2023-05-21T09:13:27.044Z,52.92
2023-05-21T09:15:54.936Z,50.67
2023-05-21T09:18:23.962Z,49.97
2023-05-21T09:21:27.616Z,51.85
2023-05-21T09:24:06.545Z,50.88
2023-05-21T09:26:34.413Z,42.78
2023-05-21T09:29:05.195Z,33.38
2023-05-21T09:31:33.270Z,39.35
2023-05-21T09:34:01.363Z,30.88
2023-05-21T09:36:29.841Z,34.45
2023-05-21T09:39:00.223Z,30.95
2023-05-21T09:41:35.651Z,41.78
2023-05-21T09:44:05.032Z,34.50
2023-05-21T09:46:41.948Z,29.38
2023-05-21T09:49:38.099Z,26.38
2023-05-21T09:52:06.390Z,28.40
2023-05-21T09:54:35.173Z,31.52
2023-05-21T09:57:03.033Z,23.45
2023-05-21T09:59:39.771Z,23.58
2023-05-21T10:02:20.184Z,25.98
2023-05-21T10:04:50.322Z,28.73
2023-05-21T10:07:25.982Z,19.48
2023-05-21T10:09:58.113Z,25.20
2023-05-21T10:12:26.138Z,29.70
2023-05-21T10:15:01.764Z,37.08
2023-05-21T10:17:30.798Z,35.67
2023-05-21T10:20:00.673Z,30.30
2023-05-21T10:22:28.385Z,32.47
2023-05-21T10:24:56.999Z,31.77
2023-05-21T10:27:24.637Z,30.15
2023-05-21T10:29:54.741Z,21.55
2023-05-21T10:32:23.220Z,24.55
2023-05-21T10:34:54.465Z,15.40
2023-05-21T10:37:24.995Z,19.88
2023-05-21T10:39:52.909Z,21.38
2023-05-21T10:42:32.002Z,22.08
2023-05-21T10:45:26.510Z,22.98
2023-05-21T10:48:05.563Z,22.30
2023-05-21T10:50:54.435Z,21.05
2023-05-21T10:53:57.176Z,20.90
2023-05-21T10:56:29.186Z,17.23
2023-05-21T10:59:25.990Z,18.90
2023-05-21T11:01:54.458Z,17.25
2023-05-21T11:04:29.016Z,24.52
2023-05-21T11:06:58.573Z,21.73
2023-05-21T11:09:27.486Z,21.80
2023-05-21T11:11:59.284Z,24.90
2023-05-21T11:14:36.790Z,22.08
2023-05-21T11:17:10.525Z,22.55
2023-05-21T11:19:39.177Z,21.27
2023-05-21T11:22:26.671Z,22.30
2023-05-21T11:25:01.498Z,19.45
2023-05-21T11:27:37.005Z,33.53
2023-05-21T11:30:08.919Z,31.30
2023-05-21T11:32:41.114Z,29.05
2023-05-21T11:35:08.982Z,23.13
2023-05-21T11:37:38.004Z,27.75
2023-05-21T11:40:30.362Z,25.70
2023-05-21T11:42:57.786Z,19.02
2023-05-21T11:45:29.657Z,20.05
2023-05-21T11:47:56.948Z,20.85
2023-05-21T11:50:24.267Z,18.58
2023-05-21T11:52:52.471Z,18.42
2023-05-21T11:55:25.152Z,19.35
2023-05-21T11:57:55.616Z,19.30
2023-05-21T12:00:23.308Z,17.52
2023-05-21T12:02:52.996Z,14.43
2023-05-21T12:05:20.998Z,15.75
2023-05-21T12:07:50.380Z,21.98
2023-05-21T12:10:21.056Z,19.98
2023-05-21T12:12:55.828Z,21.05
2023-05-21T12:15:25.023Z,23.25
2023-05-21T12:17:53.311Z,23.75
2023-05-21T12:20:21.187Z,28.42
2023-05-21T12:22:51.787Z,30.30
2023-05-21T12:25:23.097Z,25.58
2023-05-21T12:27:58.010Z,23.58
2023-05-21T12:30:26.670Z,27.13
2023-05-21T12:32:53.857Z,21.70
2023-05-21T12:35:23.218Z,31.38
2023-05-21T12:37:51.176Z,37.53
2023-05-21T12:40:19.089Z,29.50
2023-05-21T12:42:46.376Z,27.60
2023-05-21T12:45:14.036Z,20.50
2023-05-21T12:47:41.284Z,17.77
2023-05-21T12:50:12.006Z,22.20
2023-05-21T12:52:40.711Z,20.67
2023-05-21T12:55:10.598Z,21.85
2023-05-21T12:57:41.672Z,22.23
2023-05-21T13:00:10.450Z,19.63
2023-05-21T13:02:45.606Z,15.82
2023-05-21T13:05:19.849Z,18.90
2023-05-21T13:07:48.003Z,14.68
2023-05-21T13:10:19.246Z,16.15
2023-05-21T13:12:46.984Z,19.08
2023-05-21T13:15:14.710Z,17.33
2023-05-21T13:17:42.007Z,21.20
2023-05-21T13:20:26.665Z,17.30
2023-05-21T13:22:54.335Z,18.98
2023-05-21T13:25:25.014Z,17.38
2023-05-21T13:27:53.624Z,20.05
2023-05-21T13:30:22.728Z,22.83
2023-05-21T13:32:50.469Z,16.67
2023-05-21T13:35:17.916Z,25.40
2023-05-21T13:37:46.259Z,31.65
2023-05-21T13:40:15.701Z,29.25
2023-05-21T13:42:47.183Z,28.30
2023-05-21T13:45:17.466Z,23.05
2023-05-21T13:47:46.967Z,22.80
2023-05-21T13:50:17.358Z,24.83
2023-05-21T13:52:44.890Z,31.52
2023-05-21T13:55:12.240Z,40.22
2023-05-21T13:57:40.920Z,18.73
2023-05-21T14:00:14.373Z,26.08
2023-05-21T14:02:43.383Z,21.40
2023-05-21T14:05:11.819Z,26.60
2023-05-21T14:07:40.227Z,23.05
2023-05-21T14:10:08.180Z,25.67
2023-05-21T14:12:35.378Z,24.95
2023-05-21T14:15:02.567Z,24.77
2023-05-21T14:17:29.948Z,22.15
2023-05-21T14:19:57.675Z,23.60
2023-05-21T14:22:24.855Z,26.42
2023-05-21T14:24:53.007Z,29.58
2023-05-21T14:27:20.674Z,27.05
2023-05-21T14:29:47.981Z,29.95
2023-05-21T14:32:15.350Z,31.88
2023-05-21T14:34:42.800Z,24.05
2023-05-21T14:37:09.993Z,28.63
2023-05-21T14:39:37.194Z,27.70
2023-05-21T14:42:05.122Z,30.05
2023-05-21T14:44:32.605Z,30.38
2023-05-21T14:47:00.145Z,21.65
2023-05-21T14:49:27.593Z,24.25
2023-05-21T14:51:54.788Z,24.33
2023-05-21T14:54:22.101Z,22.40
2023-05-21T14:56:49.359Z,25.15
2023-05-21T14:59:16.598Z,27.70
2023-05-21T15:01:44.020Z,22.40
2023-05-21T15:04:11.762Z,24.95
2023-05-21T15:06:39.220Z,33.45
2023-05-21T15:09:06.813Z,22.85
2023-05-21T15:11:34.563Z,24.00
2023-05-21T15:14:01.821Z,28.80
2023-05-21T15:16:29.146Z,26.35
2023-05-21T15:18:56.868Z,29.58
2023-05-21T15:21:25.727Z,25.80
2023-05-21T15:23:54.715Z,26.17
2023-05-21T15:26:21.866Z,31.55
2023-05-21T15:28:49.207Z,24.33
2023-05-21T15:31:16.390Z,28.08
2023-05-21T15:33:43.659Z,31.10
2023-05-21T15:36:11.008Z,26.88
2023-05-21T15:38:38.282Z,25.20
2023-05-21T15:41:06.624Z,31.33
2023-05-21T15:43:33.858Z,29.83
2023-05-21T15:46:01.123Z,31.35
2023-05-21T15:48:28.483Z,23.92
2023-05-21T15:50:55.748Z,30.40
2023-05-21T15:53:23.092Z,28.17
2023-05-21T15:55:50.473Z,19.67
2023-05-21T15:58:18.269Z,29.00
2023-05-21T16:00:45.553Z,41.00
2023-05-21T16:03:13.397Z,31.83
2023-05-21T16:05:41.497Z,29.38
2023-05-21T16:08:11.335Z,24.75
2023-05-21T16:10:40.430Z,31.02
2023-05-21T16:13:08.383Z,26.33
2023-05-21T16:15:36.154Z,28.65
2023-05-21T16:18:04.016Z,33.83
2023-05-21T16:20:31.715Z,29.58
2023-05-21T16:22:59.371Z,31.65
2023-05-21T16:25:27.226Z,41.47
2023-05-21T16:27:54.869Z,30.75
2023-05-21T16:30:22.375Z,38.17
2023-05-21T16:32:50.315Z,30.55
2023-05-21T16:35:18.050Z,43.65
2023-05-21T16:37:46.560Z,43.85
2023-05-21T16:40:14.628Z,28.20
2023-05-21T16:42:43.629Z,31.48
2023-05-21T16:45:16.461Z,27.70
2023-05-21T16:47:44.606Z,36.72
2023-05-21T16:50:13.169Z,61.95
2023-05-21T16:52:41.312Z,91.32
2023-05-21T16:55:09.521Z,38.15
2023-05-21T16:57:38.214Z,42.70
2023-05-21T17:00:08.665Z,28.38
2023-05-21T17:02:37.153Z,34.33
2023-05-21T17:05:05.829Z,32.13
2023-05-21T17:07:34.346Z,41.83
2023-05-21T17:10:02.386Z,48.10
2023-05-21T17:12:30.235Z,56.22
2023-05-21T17:14:58.725Z,50.25
2023-05-21T17:17:27.638Z,29.75
2023-05-21T17:19:55.718Z,42.65
2023-05-21T17:22:24.193Z,41.03
2023-05-21T17:24:52.340Z,27.50
2023-05-21T17:27:20.891Z,30.15
2023-05-21T17:29:48.475Z,23.42
2023-05-21T17:32:17.324Z,23.40
2023-05-21T17:34:45.978Z,26.30
2023-05-21T17:37:14.003Z,26.35
2023-05-21T17:39:42.345Z,20.83
2023-05-21T17:42:10.353Z,34.20
2023-05-21T17:44:38.581Z,33.88
2023-05-21T17:47:07.952Z,34.42
2023-05-21T17:49:35.729Z,27.65
2023-05-21T17:52:04.750Z,34.90
2023-05-21T17:54:32.415Z,35.10
2023-05-21T17:56:59.969Z,42.00
2023-05-21T17:59:27.490Z,45.75
2023-05-21T18:01:56.917Z,34.67
2023-05-21T18:04:24.755Z,37.65
2023-05-21T18:06:52.283Z,27.48
2023-05-21T18:09:19.818Z,29.80
2023-05-21T18:11:47.181Z,34.95
2023-05-21T18:14:14.475Z,42.10
2023-05-21T18:16:41.629Z,41.42
2023-05-21T18:19:09.173Z,46.15
2023-05-21T18:21:37.377Z,41.50
2023-05-21T18:24:06.475Z,36.67
2023-05-21T18:26:33.572Z,34.03
2023-05-21T18:29:00.819Z,42.28
2023-05-21T18:31:28.250Z,30.65
2023-05-21T18:33:56.544Z,26.92
2023-05-21T18:36:24.193Z,34.58
2023-05-21T18:38:52.559Z,29.17
2023-05-21T18:41:20.308Z,28.27
2023-05-21T18:43:47.556Z,20.92
2023-05-21T18:46:14.914Z,22.20
2023-05-21T18:48:42.218Z,30.38
2023-05-21T18:51:10.090Z,30.83
2023-05-21T18:53:38.130Z,27.20
2023-05-21T18:56:07.040Z,26.85
2023-05-21T18:58:34.316Z,29.80
2023-05-21T19:01:01.577Z,26.80
2023-05-21T19:03:28.753Z,23.58
2023-05-21T19:05:56.028Z,25.77
2023-05-21T19:08:23.179Z,23.20
2023-05-21T19:10:50.850Z,26.42
2023-05-21T19:13:18.094Z,24.52
2023-05-21T19:15:48.392Z,30.33
2023-05-21T19:18:17.823Z,26.33
2023-05-21T19:20:45.611Z,36.60
2023-05-21T19:23:12.996Z,42.85
2023-05-21T19:25:40.837Z,33.63
2023-05-21T19:28:08.548Z,43.15
2023-05-21T19:30:36.700Z,32.65
2023-05-21T19:33:04.673Z,31.25
2023-05-21T19:35:32.127Z,25.02
2023-05-21T19:38:01.834Z,22.05
2023-05-21T19:40:32.084Z,21.58
2023-05-21T19:42:59.756Z,22.38
2023-05-21T19:45:27.306Z,19.98
2023-05-21T19:47:55.015Z,19.33
2023-05-21T19:50:23.033Z,20.60
2023-05-21T19:52:50.243Z,17.42
2023-05-21T19:55:21.092Z,19.77
2023-05-21T19:57:49.598Z,19.92
2023-05-21T20:00:17.910Z,17.48
2023-05-21T20:02:46.536Z,13.57
2023-05-21T20:05:14.993Z,18.05
2023-05-21T20:07:44.060Z,17.13
2023-05-21T20:10:12.510Z,19.15
2023-05-21T20:12:40.726Z,18.42
2023-05-21T20:15:08.811Z,16.45
2023-05-21T20:17:43.578Z,16.60
2023-05-21T20:20:13.556Z,19.73
2023-05-21T20:22:41.626Z,17.27
2023-05-21T20:25:10.789Z,17.20
2023-05-21T20:27:39.275Z,20.95
2023-05-21T20:30:09.678Z,19.50
2023-05-21T20:32:38.482Z,14.93
2023-05-21T20:35:09.406Z,18.58
2023-05-21T20:37:37.106Z,15.98
2023-05-21T20:40:06.577Z,16.42
2023-05-21T20:42:36.920Z,16.35
2023-05-21T20:45:04.744Z,18.27
2023-05-21T20:47:32.225Z,19.80
2023-05-21T20:50:00.357Z,17.17
2023-05-21T20:52:27.621Z,19.02
2023-05-21T20:54:55.318Z,19.02
2023-05-21T20:57:22.702Z,17.25
2023-05-21T20:59:52.551Z,22.30
2023-05-21T21:02:20.510Z,13.57
2023-05-21T21:04:49.243Z,18.85
2023-05-21T21:07:19.840Z,20.77
2023-05-21T21:09:47.486Z,21.80
2023-05-21T21:14:48.720Z,22.05
2023-05-21T21:17:16.610Z,17.02
2023-05-21T21:19:43.758Z,19.42
2023-05-21T21:22:11.100Z,19.45
2023-05-21T21:24:38.413Z,20.25
2023-05-21T21:27:06.898Z,23.38
2023-05-21T21:29:34.261Z,17.73
2023-05-21T21:32:01.874Z,28.85
2023-05-21T21:34:29.172Z,21.17
2023-05-21T21:36:56.368Z,21.27
2023-05-21T21:39:24.069Z,15.60
2023-05-21T21:41:51.209Z,18.65
2023-05-21T21:44:18.703Z,19.52
2023-05-21T21:46:46.370Z,19.20
2023-05-21T21:49:14.718Z,21.23
2023-05-21T21:51:45.491Z,22.60
2023-05-21T21:54:12.826Z,15.43
2023-05-21T21:56:40.067Z,21.08
2023-05-21T21:59:07.294Z,20.75
2023-05-21T22:01:34.603Z,27.25
2023-05-21T22:04:01.867Z,20.52
2023-05-21T22:06:29.171Z,20.15
2023-05-21T22:08:56.267Z,13.88
2023-05-21T22:11:23.427Z,13.32
2023-05-21T22:13:50.694Z,17.77
2023-05-21T22:16:17.725Z,13.57
2023-05-21T22:18:45.201Z,16.73
2023-05-21T22:21:14.413Z,22.17
2023-05-21T22:23:41.864Z,18.48
2023-05-21T22:26:09.894Z,26.05
2023-05-21T22:28:37.302Z,17.63
2023-05-21T22:31:05.073Z,18.27
2023-05-21T22:33:32.235Z,16.98
2023-05-21T22:35:59.384Z,23.23
2023-05-21T22:38:26.622Z,19.67
2023-05-21T22:40:53.940Z,18.95
2023-05-21T22:43:21.302Z,16.30
2023-05-21T22:45:48.361Z,20.85
2023-05-21T22:48:18.368Z,14.82
2023-05-21T22:50:46.432Z,14.63
2023-05-21T22:53:13.719Z,15.75
2023-05-21T22:55:40.898Z,17.45
2023-05-21T22:58:08.167Z,22.10
2023-05-21T23:00:35.263Z,21.40
2023-05-21T23:03:02.497Z,21.90
2023-05-21T23:05:29.664Z,23.45
2023-05-21T23:07:56.854Z,20.77
2023-05-21T23:10:24.116Z,21.13
2023-05-21T23:12:51.473Z,18.60
2023-05-21T23:15:19.193Z,20.00
2023-05-21T23:17:47.107Z,21.30
2023-05-21T23:20:15.640Z,19.92
2023-05-21T23:22:42.888Z,22.55
2023-05-21T23:25:10.158Z,18.58
2023-05-21T23:27:37.221Z,19.88
2023-05-21T23:30:04.640Z,22.60
2023-05-21T23:32:31.837Z,16.70
2023-05-21T23:34:59.163Z,19.27
2023-05-21T23:37:26.534Z,24.33
2023-05-21T23:39:53.766Z,15.50
2023-05-21T23:42:21.055Z,15.70
2023-05-21T23:44:48.181Z,20.30
2023-05-21T23:47:15.350Z,18.88
2023-05-21T23:49:42.579Z,18.20
2023-05-21T23:52:09.675Z,16.60
2023-05-21T23:54:36.820Z,16.83
2023-05-21T23:57:04.751Z,23.67
2023-05-21T23:59:31.762Z,18.58
